Kalamazoo Battle Creek International Airport
KAZO : now visible

Airfield :











YOU CAN JOIN US ON...

 
LOGIN :

Register | Disclaimer

   EN    FR    IT 

 









Legend :    VFR   Marginal VFR   IFR   Intensive IFR   Very Intensive IFR
Visi :
Ceiling :
>= 8 km
>= 3000ft
5 to 8 km
1000 to 3000 ft
1500m to 5 km
500 to 1000 ft
800 to 1500m
200 to 500 ft
< 800m
< 200 ft
Symbols :   Thunderstorms  Fog  Heavy snow  Heavy precipitations  Wind > 20 kt







- Airport Elevation : 874 ft
- IATA code : AZO


KAZO - Kalamazoo Battle Creek International

CURRENT METAR :
  • 220153Z 18007KT 10SM CLR 16/03 A3010 RMK AO2 SLP195 T01610033 $

EXPIRED METARs :
  • 220053Z 16004KT 10SM CLR 18/01 A3007 RMK AO2 SLP185 T01780006 $
  • 212353Z 15006KT 10SM CLR 20/01 A3006 RMK AO2 SLP181 T02000011 10222 20183 53004 $

TAF KAZO
Valid from the 22 at 00:00 until the 23 at 00:00 UTC


212340Z 2200/2224 18010KT P6SM SCT200
FM221800 18011G21KT P6SM BKN200
KZAU FIR / North America



MET'MAP, your aeronautical weather chart ! - Copyright ORBIFLY December 2007 - Disclaimer

ORBIFLY MET'MAP TEAM :

Programming & Development : Alexandra Zaïnal
Concept & Development : Baudouin d'Aumeries
Co-Development & Prog : Marc-Olivier Méhu
Technical & hardware support : Manuel Goepfert

Contact : metmap@orbifly.com




SOURCES & CREDITS :

   NOAA       Earth
Advisory